sensor_id;sensor_type;location;lat;lon;timestamp;pressure;altitude;pressure_sealevel;temperature;humidity
55277;BME280;41136;51.478;-2.610;2023-09-19T00:05:09;99884.93;;;16.58;100.00
55277;BME280;41136;51.478;-2.610;2023-09-19T00:09:47;99883.87;;;17.30;100.00
55277;BME280;41136;51.478;-2.610;2023-09-19T00:12:12;99879.77;;;17.56;100.00
55277;BME280;41136;51.478;-2.610;2023-09-19T00:14:38;99885.49;;;17.72;100.00
55277;BME280;41136;51.478;-2.610;2023-09-19T00:17:03;99884.74;;;17.03;100.00
55277;BME280;41136;51.478;-2.610;2023-09-19T00:25:07;99869.00;;;17.63;100.00
55277;BME280;41136;51.478;-2.610;2023-09-19T00:27:32;99877.24;;;16.20;100.00
55277;BME280;41136;51.478;-2.610;2023-09-19T00:29:57;99880.58;;;15.86;100.00
55277;BME280;41136;51.478;-2.610;2023-09-19T00:32:23;99884.98;;;16.80;100.00
55277;BME280;41136;51.478;-2.610;2023-09-19T00:34:48;99891.48;;;15.70;100.00
55277;BME280;41136;51.478;-2.610;2023-09-19T00:37:14;99893.93;;;15.05;100.00
55277;BME280;41136;51.478;-2.610;2023-09-19T00:39:39;99898.17;;;14.18;100.00
55277;BME280;41136;51.478;-2.610;2023-09-19T00:42:05;99887.62;;;14.47;100.00
55277;BME280;41136;51.478;-2.610;2023-09-19T00:44:30;99893.52;;;14.52;100.00
55277;BME280;41136;51.478;-2.610;2023-09-19T00:46:55;99888.80;;;14.98;100.00
55277;BME280;41136;51.478;-2.610;2023-09-19T00:49:21;99881.57;;;14.82;100.00
55277;BME280;41136;51.478;-2.610;2023-09-19T00:51:46;99880.66;;;15.85;100.00
55277;BME280;41136;51.478;-2.610;2023-09-19T00:54:12;99871.46;;;15.61;100.00
55277;BME280;41136;51.478;-2.610;2023-09-19T00:56:37;99863.61;;;16.20;100.00
55277;BME280;41136;51.478;-2.610;2023-09-19T00:59:03;99863.55;;;15.17;100.00
55277;BME280;41136;51.478;-2.610;2023-09-19T01:01:28;99862.47;;;14.95;100.00
55277;BME280;41136;51.478;-2.610;2023-09-19T01:06:57;99848.08;;;14.80;100.00
55277;BME280;41136;51.478;-2.610;2023-09-19T01:09:22;99837.92;;;15.94;100.00
55277;BME280;41136;51.478;-2.610;2023-09-19T01:16:16;99853.58;;;15.19;100.00
55277;BME280;41136;51.478;-2.610;2023-09-19T01:18:40;99862.24;;;16.15;100.00
55277;BME280;41136;51.478;-2.610;2023-09-19T01:29:33;99876.14;;;14.24;100.00
55277;BME280;41136;51.478;-2.610;2023-09-19T01:31:47;99871.64;;;14.79;100.00
55277;BME280;41136;51.478;-2.610;2023-09-19T01:34:11;99874.05;;;14.48;100.00
55277;BME280;41136;51.478;-2.610;2023-09-19T01:36:38;99871.37;;;14.91;100.00
55277;BME280;41136;51.478;-2.610;2023-09-19T01:39:04;99871.71;;;15.17;100.00
55277;BME280;41136;51.478;-2.610;2023-09-19T01:41:38;99866.42;;;14.58;100.00
55277;BME280;41136;51.478;-2.610;2023-09-19T01:43:53;99866.18;;;14.63;100.00
55277;BME280;41136;51.478;-2.610;2023-09-19T01:46:22;99863.40;;;15.20;100.00
55277;BME280;41136;51.478;-2.610;2023-09-19T01:48:53;99863.37;;;15.10;100.00
55277;BME280;41136;51.478;-2.610;2023-09-19T01:51:10;99867.57;;;13.62;100.00
55277;BME280;41136;51.478;-2.610;2023-09-19T01:53:39;99861.59;;;14.43;100.00
55277;BME280;41136;51.478;-2.610;2023-09-19T01:55:59;99861.16;;;14.62;100.00
55277;BME280;41136;51.478;-2.610;2023-09-19T01:58:29;99853.94;;;15.07;100.00
55277;BME280;41136;51.478;-2.610;2023-09-19T02:00:50;99851.47;;;15.64;100.00
55277;BME280;41136;51.478;-2.610;2023-09-19T02:03:15;99852.25;;;15.18;100.00
55277;BME280;41136;51.478;-2.610;2023-09-19T02:05:40;99856.90;;;15.16;100.00
55277;BME280;41136;51.478;-2.610;2023-09-19T02:08:06;99858.73;;;14.97;100.00
55277;BME280;41136;51.478;-2.610;2023-09-19T02:10:32;99850.47;;;15.51;100.00
55277;BME280;41136;51.478;-2.610;2023-09-19T02:12:57;99846.42;;;14.92;100.00
55277;BME280;41136;51.478;-2.610;2023-09-19T02:15:23;99842.51;;;15.35;100.00
55277;BME280;41136;51.478;-2.610;2023-09-19T02:17:48;99838.14;;;15.48;100.00
55277;BME280;41136;51.478;-2.610;2023-09-19T02:23:20;99826.55;;;15.21;100.00
55277;BME280;41136;51.478;-2.610;2023-09-19T02:25:53;99830.15;;;15.42;100.00
55277;BME280;41136;51.478;-2.610;2023-09-19T02:28:10;99827.08;;;15.28;100.00
55277;BME280;41136;51.478;-2.610;2023-09-19T02:30:36;99826.61;;;15.43;100.00
55277;BME280;41136;51.478;-2.610;2023-09-19T02:33:01;99826.80;;;15.56;100.00
55277;BME280;41136;51.478;-2.610;2023-09-19T02:35:26;99832.33;;;15.42;100.00
55277;BME280;41136;51.478;-2.610;2023-09-19T02:37:51;99830.33;;;15.32;100.00
55277;BME280;41136;51.478;-2.610;2023-09-19T02:40:17;99828.00;;;15.86;100.00
55277;BME280;41136;51.478;-2.610;2023-09-19T02:42:42;99820.72;;;15.90;100.00
55277;BME280;41136;51.478;-2.610;2023-09-19T02:45:09;99815.88;;;15.81;100.00
55277;BME280;41136;51.478;-2.610;2023-09-19T02:47:33;99814.54;;;15.46;100.00
55277;BME280;41136;51.478;-2.610;2023-09-19T02:53:35;99803.35;;;16.06;100.00
55277;BME280;41136;51.478;-2.610;2023-09-19T02:56:00;99802.28;;;16.31;100.00
55277;BME280;41136;51.478;-2.610;2023-09-19T03:01:59;99800.73;;;16.84;100.00
55277;BME280;41136;51.478;-2.610;2023-09-19T03:04:24;99797.92;;;16.77;100.00
55277;BME280;41136;51.478;-2.610;2023-09-19T03:06:49;99787.94;;;16.79;100.00
55277;BME280;41136;51.478;-2.610;2023-09-19T03:09:15;99781.15;;;16.12;100.00
55277;BME280;41136;51.478;-2.610;2023-09-19T03:11:40;99775.44;;;16.83;100.00
55277;BME280;41136;51.478;-2.610;2023-09-19T03:17:45;99762.78;;;16.84;100.00
55277;BME280;41136;51.478;-2.610;2023-09-19T03:20:10;99743.71;;;16.58;100.00
55277;BME280;41136;51.478;-2.610;2023-09-19T03:22:35;99739.59;;;15.69;100.00
55277;BME280;41136;51.478;-2.610;2023-09-19T03:25:00;99724.73;;;16.63;100.00
55277;BME280;41136;51.478;-2.610;2023-09-19T03:27:26;99731.43;;;16.99;100.00
55277;BME280;41136;51.478;-2.610;2023-09-19T03:29:51;99730.74;;;16.06;100.00
55277;BME280;41136;51.478;-2.610;2023-09-19T03:32:16;99735.21;;;16.56;100.00
55277;BME280;41136;51.478;-2.610;2023-09-19T03:34:41;99737.81;;;16.20;100.00
55277;BME280;41136;51.478;-2.610;2023-09-19T03:37:07;99731.01;;;16.49;100.00
55277;BME280;41136;51.478;-2.610;2023-09-19T03:39:32;99725.96;;;15.98;100.00
55277;BME280;41136;51.478;-2.610;2023-09-19T03:41:57;99713.72;;;16.63;100.00
55277;BME280;41136;51.478;-2.610;2023-09-19T03:44:22;99708.23;;;16.32;100.00
55277;BME280;41136;51.478;-2.610;2023-09-19T03:46:48;99713.57;;;16.36;100.00
55277;BME280;41136;51.478;-2.610;2023-09-19T03:49:13;99702.51;;;16.43;100.00
55277;BME280;41136;51.478;-2.610;2023-09-19T03:51:38;99710.18;;;15.54;100.00
55277;BME280;41136;51.478;-2.610;2023-09-19T03:54:04;99705.76;;;16.31;100.00
55277;BME280;41136;51.478;-2.610;2023-09-19T03:56:29;99709.99;;;15.93;100.00
55277;BME280;41136;51.478;-2.610;2023-09-19T03:58:54;99708.98;;;16.05;100.00
55277;BME280;41136;51.478;-2.610;2023-09-19T04:01:19;99713.34;;;15.92;100.00
55277;BME280;41136;51.478;-2.610;2023-09-19T04:03:45;99713.56;;;15.13;100.00
55277;BME280;41136;51.478;-2.610;2023-09-19T04:06:10;99701.41;;;16.05;100.00
55277;BME280;41136;51.478;-2.610;2023-09-19T04:08:35;99699.39;;;16.01;100.00
55277;BME280;41136;51.478;-2.610;2023-09-19T04:11:01;99700.12;;;15.46;100.00
55277;BME280;41136;51.478;-2.610;2023-09-19T04:13:27;99686.52;;;15.96;100.00
55277;BME280;41136;51.478;-2.610;2023-09-19T04:15:52;99689.82;;;15.71;100.00
55277;BME280;41136;51.478;-2.610;2023-09-19T04:18:17;99698.57;;;15.53;100.00
55277;BME280;41136;51.478;-2.610;2023-09-19T04:20:48;99692.37;;;16.11;100.00
55277;BME280;41136;51.478;-2.610;2023-09-19T04:23:08;99687.85;;;15.76;100.00
55277;BME280;41136;51.478;-2.610;2023-09-19T04:25:40;99683.48;;;14.66;100.00
55277;BME280;41136;51.478;-2.610;2023-09-19T04:27:58;99694.23;;;15.11;100.00
55277;BME280;41136;51.478;-2.610;2023-09-19T04:30:24;99693.74;;;15.69;100.00
55277;BME280;41136;51.478;-2.610;2023-09-19T04:32:49;99710.33;;;15.46;100.00
55277;BME280;41136;51.478;-2.610;2023-09-19T04:35:14;99711.82;;;14.46;100.00
55277;BME280;41136;51.478;-2.610;2023-09-19T04:37:45;99706.25;;;15.23;100.00
55277;BME280;41136;51.478;-2.610;2023-09-19T04:40:07;99708.05;;;14.74;100.00
55277;BME280;41136;51.478;-2.610;2023-09-19T04:42:30;99702.35;;;15.00;100.00
55277;BME280;41136;51.478;-2.610;2023-09-19T04:44:55;99693.21;;;15.04;100.00
55277;BME280;41136;51.478;-2.610;2023-09-19T04:47:21;99688.86;;;14.49;100.00
55277;BME280;41136;51.478;-2.610;2023-09-19T04:49:46;99693.10;;;13.90;100.00
55277;BME280;41136;51.478;-2.610;2023-09-19T04:52:11;99683.06;;;14.89;100.00
55277;BME280;41136;51.478;-2.610;2023-09-19T04:54:37;99680.25;;;14.68;100.00
55277;BME280;41136;51.478;-2.610;2023-09-19T04:57:02;99677.63;;;15.72;100.00
55277;BME280;41136;51.478;-2.610;2023-09-19T04:59:27;99676.40;;;15.28;100.00
55277;BME280;41136;51.478;-2.610;2023-09-19T05:01:52;99672.35;;;15.82;100.00
55277;BME280;41136;51.478;-2.610;2023-09-19T05:04:18;99673.16;;;15.82;100.00
55277;BME280;41136;51.478;-2.610;2023-09-19T05:06:43;99667.43;;;16.08;100.00
55277;BME280;41136;51.478;-2.610;2023-09-19T05:09:08;99675.74;;;15.67;100.00
55277;BME280;41136;51.478;-2.610;2023-09-19T05:11:34;99676.99;;;15.88;100.00
55277;BME280;41136;51.478;-2.610;2023-09-19T05:13:59;99675.03;;;15.83;100.00
55277;BME280;41136;51.478;-2.610;2023-09-19T05:16:24;99660.48;;;16.08;100.00
55277;BME280;41136;51.478;-2.610;2023-09-19T05:18:49;99652.89;;;15.72;100.00
55277;BME280;41136;51.478;-2.610;2023-09-19T05:21:15;99652.43;;;16.14;100.00
55277;BME280;41136;51.478;-2.610;2023-09-19T05:23:40;99642.58;;;16.26;100.00
55277;BME280;41136;51.478;-2.610;2023-09-19T05:26:05;99644.78;;;15.54;100.00
55277;BME280;41136;51.478;-2.610;2023-09-19T05:28:31;99637.21;;;15.76;100.00
55277;BME280;41136;51.478;-2.610;2023-09-19T05:30:56;99632.34;;;15.21;100.00
55277;BME280;41136;51.478;-2.610;2023-09-19T05:33:21;99636.99;;;16.09;100.00
55277;BME280;41136;51.478;-2.610;2023-09-19T05:35:48;99636.78;;;15.76;100.00
55277;BME280;41136;51.478;-2.610;2023-09-19T05:38:12;99632.13;;;16.42;100.00
55277;BME280;41136;51.478;-2.610;2023-09-19T05:40:37;99620.75;;;15.25;100.00
55277;BME280;41136;51.478;-2.610;2023-09-19T05:43:03;99618.33;;;15.99;100.00
55277;BME280;41136;51.478;-2.610;2023-09-19T05:45:28;99613.60;;;15.69;100.00
55277;BME280;41136;51.478;-2.610;2023-09-19T05:47:53;99601.85;;;15.52;100.00
55277;BME280;41136;51.478;-2.610;2023-09-19T05:50:18;99602.33;;;15.94;100.00
55277;BME280;41136;51.478;-2.610;2023-09-19T05:52:47;99598.27;;;15.90;100.00
55277;BME280;41136;51.478;-2.610;2023-09-19T05:55:09;99600.69;;;16.09;100.00
55277;BME280;41136;51.478;-2.610;2023-09-19T05:57:34;99594.13;;;16.44;100.00
55277;BME280;41136;51.478;-2.610;2023-09-19T05:59:59;99582.34;;;16.00;100.00
55277;BME280;41136;51.478;-2.610;2023-09-19T06:02:25;99576.52;;;15.79;100.00
55277;BME280;41136;51.478;-2.610;2023-09-19T06:04:50;99577.51;;;15.55;100.00
55277;BME280;41136;51.478;-2.610;2023-09-19T06:07:15;99575.29;;;16.03;100.00
55277;BME280;41136;51.478;-2.610;2023-09-19T06:09:41;99581.14;;;15.87;100.00
55277;BME280;41136;51.478;-2.610;2023-09-19T06:12:07;99582.18;;;14.82;100.00
55277;BME280;41136;51.478;-2.610;2023-09-19T06:14:32;99590.31;;;16.15;100.00
55277;BME280;41136;51.478;-2.610;2023-09-19T06:16:57;99588.94;;;16.03;100.00
55277;BME280;41136;51.478;-2.610;2023-09-19T06:19:22;99583.47;;;14.56;100.00
55277;BME280;41136;51.478;-2.610;2023-09-19T06:21:48;99577.12;;;15.88;100.00
55277;BME280;41136;51.478;-2.610;2023-09-19T06:24:13;99568.52;;;15.21;100.00
55277;BME280;41136;51.478;-2.610;2023-09-19T06:26:38;99568.54;;;15.57;100.00
55277;BME280;41136;51.478;-2.610;2023-09-19T06:29:04;99571.75;;;15.68;100.00
55277;BME280;41136;51.478;-2.610;2023-09-19T06:31:29;99570.99;;;15.51;100.00
55277;BME280;41136;51.478;-2.610;2023-09-19T06:33:54;99567.71;;;15.25;100.00
55277;BME280;41136;51.478;-2.610;2023-09-19T06:38:16;99562.03;;;14.80;100.00
55277;BME280;41136;51.478;-2.610;2023-09-19T06:40:41;99560.11;;;15.80;100.00
55277;BME280;41136;51.478;-2.610;2023-09-19T06:43:06;99561.59;;;15.72;100.00
55277;BME280;41136;51.478;-2.610;2023-09-19T06:45:32;99556.69;;;15.74;100.00
55277;BME280;41136;51.478;-2.610;2023-09-19T06:47:57;99561.43;;;16.08;100.00
55277;BME280;41136;51.478;-2.610;2023-09-19T06:50:23;99565.65;;;15.48;100.00
55277;BME280;41136;51.478;-2.610;2023-09-19T06:52:48;99563.66;;;15.42;100.00
55277;BME280;41136;51.478;-2.610;2023-09-19T06:55:13;99568.50;;;15.07;100.00
55277;BME280;41136;51.478;-2.610;2023-09-19T06:57:38;99571.78;;;14.75;100.00
55277;BME280;41136;51.478;-2.610;2023-09-19T07:00:05;99575.49;;;14.45;100.00
55277;BME280;41136;51.478;-2.610;2023-09-19T07:02:29;99576.55;;;14.35;100.00
55277;BME280;41136;51.478;-2.610;2023-09-19T07:04:54;99570.26;;;14.78;100.00
55277;BME280;41136;51.478;-2.610;2023-09-19T07:07:20;99576.57;;;15.04;100.00
55277;BME280;41136;51.478;-2.610;2023-09-19T07:09:45;99571.23;;;15.03;100.00
55277;BME280;41136;51.478;-2.610;2023-09-19T07:12:11;99554.61;;;14.82;100.00
55277;BME280;41136;51.478;-2.610;2023-09-19T07:14:36;99540.32;;;14.97;100.00
55277;BME280;41136;51.478;-2.610;2023-09-19T07:17:01;99546.74;;;15.12;100.00
55277;BME280;41136;51.478;-2.610;2023-09-19T07:19:27;99548.01;;;14.89;100.00
55277;BME280;41136;51.478;-2.610;2023-09-19T07:21:58;99561.64;;;14.13;100.00
55277;BME280;41136;51.478;-2.610;2023-09-19T07:24:17;99565.43;;;14.47;100.00
55277;BME280;41136;51.478;-2.610;2023-09-19T07:26:42;99562.40;;;14.10;100.00
55277;BME280;41136;51.478;-2.610;2023-09-19T07:29:08;99560.45;;;14.18;100.00
55277;BME280;41136;51.478;-2.610;2023-09-19T07:31:33;99561.89;;;13.99;100.00
55277;BME280;41136;51.478;-2.610;2023-09-19T07:33:58;99563.64;;;14.91;100.00
55277;BME280;41136;51.478;-2.610;2023-09-19T07:36:24;99559.36;;;15.27;100.00
55277;BME280;41136;51.478;-2.610;2023-09-19T07:38:50;99553.44;;;15.00;100.00
55277;BME280;41136;51.478;-2.610;2023-09-19T07:41:15;99538.67;;;15.86;100.00
55277;BME280;41136;51.478;-2.610;2023-09-19T07:43:40;99541.56;;;15.53;100.00
55277;BME280;41136;51.478;-2.610;2023-09-19T07:46:06;99538.18;;;15.58;100.00
55277;BME280;41136;51.478;-2.610;2023-09-19T07:48:30;99536.37;;;14.77;100.00
55277;BME280;41136;51.478;-2.610;2023-09-19T07:51:00;99526.20;;;14.80;100.00
55277;BME280;41136;51.478;-2.610;2023-09-19T07:53:21;99527.85;;;14.39;100.00
55277;BME280;41136;51.478;-2.610;2023-09-19T07:55:47;99522.09;;;15.50;100.00
55277;BME280;41136;51.478;-2.610;2023-09-19T07:58:12;99512.89;;;15.30;100.00
55277;BME280;41136;51.478;-2.610;2023-09-19T08:00:37;99517.47;;;15.71;100.00
55277;BME280;41136;51.478;-2.610;2023-09-19T08:03:03;99511.25;;;15.35;100.00
55277;BME280;41136;51.478;-2.610;2023-09-19T08:05:28;99519.20;;;15.39;100.00
55277;BME280;41136;51.478;-2.610;2023-09-19T08:07:53;99510.47;;;15.47;100.00
55277;BME280;41136;51.478;-2.610;2023-09-19T08:10:19;99506.61;;;15.95;100.00
55277;BME280;41136;51.478;-2.610;2023-09-19T08:15:07;99517.52;;;15.43;100.00
55277;BME280;41136;51.478;-2.610;2023-09-19T08:17:34;99523.05;;;15.15;100.00
55277;BME280;41136;51.478;-2.610;2023-09-19T08:19:57;99531.52;;;15.52;100.00
55277;BME280;41136;51.478;-2.610;2023-09-19T08:22:22;99529.69;;;15.44;100.00
55277;BME280;41136;51.478;-2.610;2023-09-19T08:27:19;99522.98;;;17.44;100.00
55277;BME280;41136;51.478;-2.610;2023-09-19T08:29:44;99524.36;;;16.77;100.00
55277;BME280;41136;51.478;-2.610;2023-09-19T08:32:09;99529.85;;;16.64;100.00
55277;BME280;41136;51.478;-2.610;2023-09-19T08:34:34;99542.76;;;15.87;100.00
55277;BME280;41136;51.478;-2.610;2023-09-19T08:37:00;99545.35;;;16.89;100.00
55277;BME280;41136;51.478;-2.610;2023-09-19T08:39:26;99549.50;;;16.61;100.00
55277;BME280;41136;51.478;-2.610;2023-09-19T08:41:57;99528.24;;;17.05;100.00
55277;BME280;41136;51.478;-2.610;2023-09-19T08:44:17;99536.77;;;17.44;100.00
55277;BME280;41136;51.478;-2.610;2023-09-19T08:46:43;99534.85;;;17.44;100.00
55277;BME280;41136;51.478;-2.610;2023-09-19T08:49:13;99533.42;;;17.39;100.00
55277;BME280;41136;51.478;-2.610;2023-09-19T08:51:41;99533.74;;;15.98;100.00
55277;BME280;41136;51.478;-2.610;2023-09-19T08:54:03;99538.15;;;15.48;100.00
55277;BME280;41136;51.478;-2.610;2023-09-19T08:56:25;99535.20;;;16.60;100.00
55277;BME280;41136;51.478;-2.610;2023-09-19T08:58:51;99530.44;;;16.27;100.00
55277;BME280;41136;51.478;-2.610;2023-09-19T09:01:16;99534.20;;;16.13;100.00
55277;BME280;41136;51.478;-2.610;2023-09-19T09:03:40;99526.41;;;16.82;100.00
55277;BME280;41136;51.478;-2.610;2023-09-19T09:06:06;99534.54;;;15.90;100.00
55277;BME280;41136;51.478;-2.610;2023-09-19T09:08:31;99529.94;;;16.27;100.00
55277;BME280;41136;51.478;-2.610;2023-09-19T09:10:55;99523.99;;;16.56;100.00
55277;BME280;41136;51.478;-2.610;2023-09-19T09:13:21;99528.01;;;16.76;100.00
55277;BME280;41136;51.478;-2.610;2023-09-19T09:15:46;99530.73;;;16.10;100.00
55277;BME280;41136;51.478;-2.610;2023-09-19T09:18:12;99533.36;;;16.49;100.00
55277;BME280;41136;51.478;-2.610;2023-09-19T09:20:37;99533.24;;;16.64;100.00
55277;BME280;41136;51.478;-2.610;2023-09-19T09:23:03;99527.47;;;16.53;100.00
55277;BME280;41136;51.478;-2.610;2023-09-19T09:27:58;99518.49;;;17.51;100.00
55277;BME280;41136;51.478;-2.610;2023-09-19T09:32:44;99527.57;;;17.10;100.00
55277;BME280;41136;51.478;-2.610;2023-09-19T09:35:10;99526.71;;;17.09;100.00
55277;BME280;41136;51.478;-2.610;2023-09-19T09:37:35;99534.31;;;16.59;100.00
55277;BME280;41136;51.478;-2.610;2023-09-19T09:40:01;99529.83;;;17.40;100.00
55277;BME280;41136;51.478;-2.610;2023-09-19T09:42:30;99535.57;;;16.92;100.00
55277;BME280;41136;51.478;-2.610;2023-09-19T09:47:24;99537.79;;;16.22;100.00
55277;BME280;41136;51.478;-2.610;2023-09-19T09:49:47;99544.86;;;16.64;100.00
55277;BME280;41136;51.478;-2.610;2023-09-19T09:52:07;99537.88;;;16.78;100.00
55277;BME280;41136;51.478;-2.610;2023-09-19T09:54:32;99535.67;;;16.31;100.00
55277;BME280;41136;51.478;-2.610;2023-09-19T09:56:58;99539.68;;;17.05;100.00
55277;BME280;41136;51.478;-2.610;2023-09-19T09:59:22;99536.37;;;16.65;100.00
55277;BME280;41136;51.478;-2.610;2023-09-19T10:01:47;99541.85;;;17.15;100.00
55277;BME280;41136;51.478;-2.610;2023-09-19T10:06:41;99544.77;;;16.62;100.00
55277;BME280;41136;51.478;-2.610;2023-09-19T10:09:05;99550.50;;;16.73;100.00
55277;BME280;41136;51.478;-2.610;2023-09-19T10:11:28;99540.09;;;17.47;100.00
55277;BME280;41136;51.478;-2.610;2023-09-19T10:13:53;99543.52;;;17.99;100.00
55277;BME280;41136;51.478;-2.610;2023-09-19T10:16:19;99538.49;;;17.84;100.00
55277;BME280;41136;51.478;-2.610;2023-09-19T10:18:45;99543.50;;;18.02;100.00
55277;BME280;41136;51.478;-2.610;2023-09-19T10:21:10;99540.75;;;18.09;100.00
55277;BME280;41136;51.478;-2.610;2023-09-19T10:23:35;99542.67;;;18.04;100.00
55277;BME280;41136;51.478;-2.610;2023-09-19T10:26:01;99542.88;;;18.67;100.00
55277;BME280;41136;51.478;-2.610;2023-09-19T10:28:28;99544.48;;;18.12;100.00
55277;BME280;41136;51.478;-2.610;2023-09-19T10:30:51;99544.11;;;18.42;100.00
55277;BME280;41136;51.478;-2.610;2023-09-19T10:33:17;99546.14;;;18.16;100.00
55277;BME280;41136;51.478;-2.610;2023-09-19T10:35:43;99535.40;;;19.02;100.00
55277;BME280;41136;51.478;-2.610;2023-09-19T10:38:07;99535.18;;;18.63;100.00
55277;BME280;41136;51.478;-2.610;2023-09-19T10:40:33;99535.18;;;18.53;100.00
55277;BME280;41136;51.478;-2.610;2023-09-19T10:43:01;99533.29;;;18.92;100.00
55277;BME280;41136;51.478;-2.610;2023-09-19T10:45:22;99532.93;;;17.78;100.00
55277;BME280;41136;51.478;-2.610;2023-09-19T10:47:47;99532.66;;;18.36;100.00
55277;BME280;41136;51.478;-2.610;2023-09-19T10:50:19;99531.96;;;18.16;100.00
55277;BME280;41136;51.478;-2.610;2023-09-19T10:52:40;99533.33;;;18.29;100.00
55277;BME280;41136;51.478;-2.610;2023-09-19T10:55:03;99534.76;;;18.75;100.00
55277;BME280;41136;51.478;-2.610;2023-09-19T10:57:28;99533.99;;;18.68;100.00
55277;BME280;41136;51.478;-2.610;2023-09-19T11:00:02;99537.25;;;17.60;100.00
55277;BME280;41136;51.478;-2.610;2023-09-19T11:02:19;99532.80;;;18.94;100.00
55277;BME280;41136;51.478;-2.610;2023-09-19T11:04:44;99533.78;;;18.89;100.00
55277;BME280;41136;51.478;-2.610;2023-09-19T11:11:41;99535.42;;;18.73;100.00
55277;BME280;41136;51.478;-2.610;2023-09-19T11:16:21;99535.97;;;18.48;100.00
55277;BME280;41136;51.478;-2.610;2023-09-19T11:18:51;99534.63;;;18.31;100.00
55277;BME280;41136;51.478;-2.610;2023-09-19T11:23:37;99539.17;;;18.96;100.00
55277;BME280;41136;51.478;-2.610;2023-09-19T11:26:02;99536.44;;;18.41;100.00
55277;BME280;41136;51.478;-2.610;2023-09-19T11:30:52;99547.39;;;16.25;100.00
55277;BME280;41136;51.478;-2.610;2023-09-19T11:33:19;99545.22;;;17.45;100.00
55277;BME280;41136;51.478;-2.610;2023-09-19T11:38:09;99551.50;;;17.40;100.00
55277;BME280;41136;51.478;-2.610;2023-09-19T11:40:33;99545.80;;;16.90;100.00
55277;BME280;41136;51.478;-2.610;2023-09-19T11:42:59;99539.47;;;17.56;100.00
55277;BME280;41136;51.478;-2.610;2023-09-19T11:47:50;99544.89;;;16.78;100.00
55277;BME280;41136;51.478;-2.610;2023-09-19T11:50:18;99541.70;;;17.33;100.00
55277;BME280;41136;51.478;-2.610;2023-09-19T11:52:40;99556.64;;;16.71;100.00
55277;BME280;41136;51.478;-2.610;2023-09-19T11:55:05;99551.61;;;16.56;100.00
55277;BME280;41136;51.478;-2.610;2023-09-19T11:57:30;99562.24;;;14.61;100.00
55277;BME280;41136;51.478;-2.610;2023-09-19T11:59:55;99560.14;;;15.67;100.00
55277;BME280;41136;51.478;-2.610;2023-09-19T12:02:30;99566.24;;;16.30;100.00
55277;BME280;41136;51.478;-2.610;2023-09-19T12:04:46;99558.75;;;16.78;100.00
55277;BME280;41136;51.478;-2.610;2023-09-19T12:07:12;99559.69;;;15.28;100.00
55277;BME280;41136;51.478;-2.610;2023-09-19T12:09:39;99564.60;;;16.53;100.00
55277;BME280;41136;51.478;-2.610;2023-09-19T12:12:02;99564.28;;;16.26;100.00
55277;BME280;41136;51.478;-2.610;2023-09-19T12:14:28;99557.70;;;16.82;100.00
55277;BME280;41136;51.478;-2.610;2023-09-19T12:16:54;99561.20;;;16.64;100.00
55277;BME280;41136;51.478;-2.610;2023-09-19T12:21:57;99548.01;;;16.17;100.00
55277;BME280;41136;51.478;-2.610;2023-09-19T12:24:18;99539.24;;;18.36;100.00
55277;BME280;41136;51.478;-2.610;2023-09-19T12:26:45;99545.84;;;17.60;100.00
55277;BME280;41136;51.478;-2.610;2023-09-19T12:29:14;99540.53;;;16.82;100.00
55277;BME280;41136;51.478;-2.610;2023-09-19T12:31:34;99544.16;;;17.96;100.00
55277;BME280;41136;51.478;-2.610;2023-09-19T12:34:00;99524.70;;;17.58;100.00
55277;BME280;41136;51.478;-2.610;2023-09-19T12:36:24;99526.20;;;18.12;100.00
55277;BME280;41136;51.478;-2.610;2023-09-19T12:38:49;99513.70;;;17.65;100.00
55277;BME280;41136;51.478;-2.610;2023-09-19T12:41:15;99526.49;;;17.93;100.00
55277;BME280;41136;51.478;-2.610;2023-09-19T12:43:40;99521.64;;;17.46;100.00
55277;BME280;41136;51.478;-2.610;2023-09-19T12:46:05;99524.18;;;17.92;100.00
55277;BME280;41136;51.478;-2.610;2023-09-19T12:48:30;99519.35;;;18.25;100.00
55277;BME280;41136;51.478;-2.610;2023-09-19T12:51:00;99518.90;;;18.54;100.00
55277;BME280;41136;51.478;-2.610;2023-09-19T12:53:26;99539.20;;;17.10;100.00
55277;BME280;41136;51.478;-2.610;2023-09-19T12:55:46;99547.25;;;17.09;100.00
55277;BME280;41136;51.478;-2.610;2023-09-19T12:58:12;99551.04;;;17.01;100.00
55277;BME280;41136;51.478;-2.610;2023-09-19T13:00:38;99555.39;;;16.44;100.00
55277;BME280;41136;51.478;-2.610;2023-09-19T13:07:52;99600.52;;;15.55;100.00
55277;BME280;41136;51.478;-2.610;2023-09-19T13:10:18;99595.89;;;15.64;100.00
55277;BME280;41136;51.478;-2.610;2023-09-19T13:12:44;99594.67;;;16.30;100.00
55277;BME280;41136;51.478;-2.610;2023-09-19T13:15:08;99580.00;;;15.39;100.00
55277;BME280;41136;51.478;-2.610;2023-09-19T13:17:42;99576.87;;;15.56;100.00
55277;BME280;41136;51.478;-2.610;2023-09-19T13:21:31;99566.73;;;14.87;100.00
55277;BME280;41136;51.478;-2.610;2023-09-19T13:23:55;99561.86;;;15.13;100.00
55277;BME280;41136;51.478;-2.610;2023-09-19T13:26:19;99550.14;;;15.62;100.00
55277;BME280;41136;51.478;-2.610;2023-09-19T13:28:45;99541.24;;;15.03;100.00
55277;BME280;41136;51.478;-2.610;2023-09-19T13:31:10;99550.73;;;16.38;100.00
55277;BME280;41136;51.478;-2.610;2023-09-19T13:33:35;99550.99;;;16.02;100.00
55277;BME280;41136;51.478;-2.610;2023-09-19T13:36:01;99549.49;;;15.52;100.00
55277;BME280;41136;51.478;-2.610;2023-09-19T13:38:30;99549.64;;;16.07;100.00
55277;BME280;41136;51.478;-2.610;2023-09-19T13:40:51;99548.09;;;15.68;100.00
55277;BME280;41136;51.478;-2.610;2023-09-19T13:43:16;99546.95;;;16.23;100.00
55277;BME280;41136;51.478;-2.610;2023-09-19T13:45:41;99537.85;;;16.38;100.00
55277;BME280;41136;51.478;-2.610;2023-09-19T13:48:06;99528.01;;;17.02;100.00
55277;BME280;41136;51.478;-2.610;2023-09-19T13:50:32;99531.59;;;17.14;100.00
55277;BME280;41136;51.478;-2.610;2023-09-19T13:52:57;99519.64;;;17.74;100.00